createdAt,value
2017-03-18T00:00:47.412Z,46.42
2017-03-18T00:01:47.440Z,46.33
2017-03-18T00:02:47.148Z,46.13
2017-03-18T00:03:47.493Z,46.81
2017-03-18T00:04:47.522Z,46.42
2017-03-18T00:05:47.239Z,46.51
2017-03-18T00:06:47.596Z,46.23
2017-03-18T00:07:47.596Z,46.42
2017-03-18T00:08:47.658Z,46.42
2017-03-18T00:09:47.662Z,46.61
2017-03-18T00:10:47.690Z,46.42
2017-03-18T00:11:47.398Z,46.51
2017-03-18T00:12:47.737Z,46.69
2017-03-18T00:13:47.774Z,46.42
2017-03-18T00:14:47.486Z,46.61
2017-03-18T00:15:47.826Z,46.13
2017-03-18T00:16:47.539Z,45.75
2017-03-18T00:17:47.881Z,46.03
2017-03-18T00:18:47.908Z,46.42
2017-03-18T00:19:47.942Z,46.42
2017-03-18T00:20:47.959Z,46.42
2017-03-18T00:21:48.012Z,46.03
2017-03-18T00:22:48.015Z,46.33
2017-03-18T00:23:48.053Z,46.42
2017-03-18T00:24:47.761Z,46.42
2017-03-18T00:25:47.785Z,46.3
2017-03-18T00:26:48.130Z,46.42
2017-03-18T00:27:48.151Z,46.01
2017-03-18T00:28:48.192Z,46.13
2017-03-18T00:29:47.897Z,46.4
2017-03-18T00:30:48.241Z,46.11
2017-03-18T00:31:47.962Z,46.3
2017-03-18T00:32:48.293Z,46.2
2017-03-18T00:33:48.012Z,46.2
2017-03-18T00:34:48.296Z,45.82
2017-03-18T00:35:48.378Z,46.4
2017-03-18T00:36:48.402Z,46.2
2017-03-18T00:37:48.426Z,45.82
2017-03-18T00:38:48.493Z,45.82
2017-03-18T00:39:48.744Z,46.11
2017-03-18T00:40:48.517Z,45.72
2017-03-18T00:41:48.539Z,45.82
2017-03-18T00:42:48.263Z,45.72
2017-03-18T00:43:48.604Z,46.01
2017-03-18T00:44:48.565Z,45.82
2017-03-18T00:45:48.653Z,45.92
2017-03-18T00:46:48.370Z,46.01
2017-03-18T00:47:48.702Z,46.01
2017-03-18T00:48:48.739Z,46.11
2017-03-18T00:49:48.700Z,46.01
2017-03-18T00:50:48.476Z,46.2
2017-03-18T00:51:48.504Z,45.43
2017-03-18T00:52:48.842Z,45.62
2017-03-18T00:53:48.875Z,45.72
2017-03-18T00:54:49.147Z,45.62
2017-03-18T00:55:48.612Z,45.82
2017-03-18T00:56:48.961Z,45.53
2017-03-18T00:57:49.021Z,45.82
2017-03-18T00:58:48.699Z,45.82
2017-03-18T00:59:49.288Z,45.82
2017-03-18T01:00:49.064Z,45.14
2017-03-18T01:01:48.780Z,45.53
2017-03-18T01:02:49.117Z,45.72
2017-03-18T01:03:49.152Z,45.34
2017-03-18T01:04:49.430Z,45.24
2017-03-18T01:05:48.891Z,45.34
2017-03-18T01:06:49.236Z,45.34
2017-03-18T01:07:48.988Z,45.24
2017-03-18T01:08:49.286Z,45.34
2017-03-18T01:09:49.560Z,45.43
2017-03-18T01:10:49.340Z,45.43
2017-03-18T01:11:49.367Z,45.34
2017-03-18T01:12:49.394Z,45.24
2017-03-18T01:13:49.110Z,44.95
2017-03-18T01:14:49.708Z,45.34
2017-03-18T01:15:49.478Z,45.62
2017-03-18T01:16:49.186Z,45.53
2017-03-18T01:17:49.221Z,45.34
2017-03-18T01:18:49.250Z,45.53
2017-03-18T01:19:49.837Z,45.24
2017-03-18T01:20:49.307Z,44.76
2017-03-18T01:21:49.640Z,44.46
2017-03-18T01:22:49.353Z,45.24
2017-03-18T01:23:49.389Z,44.85
2017-03-18T01:24:49.976Z,44.46
2017-03-18T01:25:49.749Z,44.76
2017-03-18T01:26:49.777Z,44.85
2017-03-18T01:27:49.806Z,44.56
2017-03-18T01:28:49.836Z,44.56
2017-03-18T01:29:49.863Z,44.95
2017-03-18T01:30:49.890Z,44.85
2017-03-18T01:31:49.916Z,44.66
2017-03-18T01:32:49.636Z,44.73
2017-03-18T01:33:49.972Z,44.56
2017-03-18T01:34:50.001Z,44.76
2017-03-18T01:35:50.033Z,44.56
2017-03-18T01:36:49.746Z,44.25
2017-03-18T01:37:50.079Z,44.66
2017-03-18T01:38:50.115Z,44.25
2017-03-18T01:39:50.141Z,44.18
2017-03-18T01:40:50.161Z,44.45
2017-03-18T01:41:50.189Z,44.64
2017-03-18T01:42:50.219Z,44.45
2017-03-18T01:43:49.928Z,44.76
2017-03-18T01:44:50.270Z,44.45
2017-03-18T01:45:49.990Z,44.45
2017-03-18T01:46:50.014Z,44.54
2017-03-18T01:47:50.357Z,44.83
2017-03-18T01:48:50.068Z,44.93
2017-03-18T01:49:50.407Z,44.56
2017-03-18T01:50:50.441Z,45.12
2017-03-18T01:51:50.466Z,44.54
2017-03-18T01:52:50.490Z,44.83
2017-03-18T01:53:50.523Z,44.73
2017-03-18T01:54:50.549Z,44.93
2017-03-18T01:55:50.261Z,44.45
2017-03-18T01:56:50.602Z,44.15
2017-03-18T01:57:50.631Z,44.06
2017-03-18T01:58:50.343Z,44.25
2017-03-18T01:59:50.713Z,44.15
2017-03-18T02:00:50.708Z,44.15
2017-03-18T02:01:50.738Z,44.15
2017-03-18T02:02:50.762Z,44.25
2017-03-18T02:03:50.794Z,44.25
2017-03-18T02:04:50.824Z,44.06
2017-03-18T02:05:50.536Z,44.15
2017-03-18T02:06:50.873Z,44.35
2017-03-18T02:07:50.594Z,44.18
2017-03-18T02:08:50.935Z,44.15
2017-03-18T02:09:50.955Z,44.46
2017-03-18T02:10:50.676Z,44.54
2017-03-18T02:11:50.701Z,44.45
2017-03-18T02:12:51.039Z,44.15
2017-03-18T02:13:51.067Z,44.25
2017-03-18T02:14:51.096Z,44.54
2017-03-18T02:15:51.374Z,44.15
2017-03-18T02:16:51.152Z,44.15
2017-03-18T02:17:51.171Z,44.06
2017-03-18T02:18:51.203Z,44.15
2017-03-18T02:19:50.919Z,44.15
2017-03-18T02:20:51.503Z,44.15
2017-03-18T02:21:51.284Z,44.25
2017-03-18T02:22:51.002Z,43.96
2017-03-18T02:23:51.333Z,44.25
2017-03-18T02:24:51.055Z,44.35
2017-03-18T02:25:51.646Z,44.15
2017-03-18T02:26:51.103Z,44.54
2017-03-18T02:27:51.447Z,44.54
2017-03-18T02:28:51.474Z,44.35
2017-03-18T02:29:51.187Z,44.35
2017-03-18T02:30:51.783Z,44.25
2017-03-18T02:31:51.587Z,44.54
2017-03-18T02:32:51.585Z,44.45
2017-03-18T02:33:51.296Z,44.25
2017-03-18T02:34:51.326Z,44.54
2017-03-18T02:35:51.606Z,44.45
2017-03-18T02:36:51.692Z,44.54
2017-03-18T02:37:51.405Z,44.54
2017-03-18T02:38:51.749Z,44.15
2017-03-18T02:39:51.770Z,44.45
2017-03-18T02:40:52.053Z,44.25
2017-03-18T02:41:51.830Z,44.54
2017-03-18T02:42:51.857Z,44.54
2017-03-18T02:43:51.889Z,44.35
2017-03-18T02:44:51.913Z,44.35
2017-03-18T02:45:51.939Z,44.45
2017-03-18T02:46:51.656Z,44.25
2017-03-18T02:47:51.685Z,43.87
2017-03-18T02:48:51.709Z,43.96
2017-03-18T02:49:52.052Z,44.15
2017-03-18T02:50:52.074Z,44.45
2017-03-18T02:51:52.102Z,43.96
2017-03-18T02:52:52.132Z,44.25
2017-03-18T02:53:51.844Z,44.35
2017-03-18T02:54:52.177Z,43.87
2017-03-18T02:55:52.213Z,43.77
2017-03-18T02:56:51.921Z,44.15
2017-03-18T02:57:52.266Z,43.87
2017-03-18T02:58:51.981Z,44.25
2017-03-18T02:59:52.322Z,44.35
2017-03-18T03:00:52.034Z,44.06
2017-03-18T03:01:52.370Z,44.45
2017-03-18T03:02:52.395Z,44.06
2017-03-18T03:03:52.438Z,44.64
2017-03-18T03:04:52.448Z,44.45
2017-03-18T03:05:52.505Z,44.35
2017-03-18T03:06:52.194Z,44.35
2017-03-18T03:07:52.223Z,43.96
2017-03-18T03:08:52.565Z,44.73
2017-03-18T03:09:52.593Z,44.35
2017-03-18T03:10:52.333Z,43.77
2017-03-18T03:11:52.646Z,43.87
2017-03-18T03:12:52.371Z,44.45
2017-03-18T03:13:52.699Z,43.77
2017-03-18T03:14:52.724Z,43.77
2017-03-18T03:15:52.753Z,43.87
2017-03-18T03:16:52.469Z,44.06
2017-03-18T03:17:52.802Z,43.58
2017-03-18T03:18:52.524Z,43.77
2017-03-18T03:19:52.860Z,43.96
2017-03-18T03:20:52.889Z,43.96
2017-03-18T03:21:52.918Z,43.75
2017-03-18T03:22:52.942Z,43.67
2017-03-18T03:23:52.660Z,43.87
2017-03-18T03:24:53.000Z,43.96
2017-03-18T03:25:53.026Z,43.77
2017-03-18T03:26:53.050Z,43.67
2017-03-18T03:27:53.085Z,43.67
2017-03-18T03:28:52.795Z,43.67
2017-03-18T03:29:52.828Z,44.15
2017-03-18T03:30:52.844Z,43.67
2017-03-18T03:31:52.877Z,44.06
2017-03-18T03:32:53.222Z,43.77
2017-03-18T03:33:53.245Z,43.94
2017-03-18T03:34:53.271Z,44.04
2017-03-18T03:35:52.984Z,44.04
2017-03-18T03:36:53.013Z,43.55
2017-03-18T03:37:53.350Z,43.65
2017-03-18T03:38:53.379Z,43.85
2017-03-18T03:39:53.407Z,43.75
2017-03-18T03:40:53.114Z,43.67
2017-03-18T03:41:53.396Z,44.13
2017-03-18T03:42:53.169Z,43.37
2017-03-18T03:43:53.513Z,43.85
2017-03-18T03:44:53.227Z,43.55
2017-03-18T03:45:53.252Z,43.55
2017-03-18T03:46:53.848Z,43.85
2017-03-18T03:47:53.629Z,43.85
2017-03-18T03:48:53.678Z,43.85
2017-03-18T03:49:53.719Z,43.37
2017-03-18T03:50:53.699Z,43.55
2017-03-18T03:51:53.972Z,43.65
2017-03-18T03:52:53.761Z,43.94
2017-03-18T03:53:53.470Z,43.85
2017-03-18T03:54:53.814Z,43.55
2017-03-18T03:55:53.835Z,44.04
2017-03-18T03:56:53.803Z,43.94
2017-03-18T03:57:53.896Z,43.27
2017-03-18T03:58:53.919Z,43.75
2017-03-18T03:59:53.637Z,43.65
2017-03-18T04:00:53.975Z,43.94
2017-03-18T04:01:54.259Z,43.94
2017-03-18T04:02:54.028Z,43.65
2017-03-18T04:03:54.057Z,43.85
2017-03-18T04:04:54.091Z,43.75
2017-03-18T04:05:53.794Z,43.55
2017-03-18T04:06:54.392Z,43.37
2017-03-18T04:07:54.168Z,43.75
2017-03-18T04:08:53.881Z,43.75
2017-03-18T04:09:54.220Z,43.85
2017-03-18T04:10:53.937Z,43.75
2017-03-18T04:11:54.211Z,43.65
2017-03-18T04:12:54.304Z,43.37
2017-03-18T04:13:54.325Z,43.75
2017-03-18T04:14:54.355Z,43.85
2017-03-18T04:15:54.069Z,43.55
2017-03-18T04:16:54.663Z,43.65
2017-03-18T04:17:54.439Z,43.55
2017-03-18T04:18:54.153Z,43.65
2017-03-18T04:19:54.189Z,43.55
2017-03-18T04:20:54.205Z,43.55
2017-03-18T04:21:54.477Z,43.65
2017-03-18T04:22:54.258Z,43.55
2017-03-18T04:23:54.601Z,43.75
2017-03-18T04:24:54.314Z,43.75
2017-03-18T04:25:54.649Z,43.75
2017-03-18T04:26:54.930Z,43.55
2017-03-18T04:27:54.707Z,43.55
2017-03-18T04:28:54.736Z,44.13
2017-03-18T04:29:54.453Z,43.55
2017-03-18T04:30:54.781Z,43.75
2017-03-18T04:31:55.062Z,43.75
2017-03-18T04:32:54.843Z,43.85
2017-03-18T04:33:54.556Z,43.65
2017-03-18T04:34:54.931Z,43.75
2017-03-18T04:35:54.613Z,43.75
2017-03-18T04:36:54.942Z,43.75
2017-03-18T04:37:54.662Z,43.55
2017-03-18T04:38:55.008Z,43.85
2017-03-18T04:39:54.717Z,43.85
2017-03-18T04:40:55.055Z,43.55
2017-03-18T04:41:54.766Z,43.55
2017-03-18T04:42:55.111Z,43.75
2017-03-18T04:43:55.134Z,43.55
2017-03-18T04:44:54.851Z,43.75
2017-03-18T04:45:54.876Z,43.55
2017-03-18T04:46:54.905Z,43.65
2017-03-18T04:47:55.238Z,43.94
2017-03-18T04:48:55.270Z,43.55
2017-03-18T04:49:54.987Z,43.75
2017-03-18T04:50:55.329Z,43.65
2017-03-18T04:51:55.040Z,43.75
2017-03-18T04:52:55.062Z,43.65
2017-03-18T04:53:55.094Z,43.37
2017-03-18T04:54:55.117Z,43.37
2017-03-18T04:55:55.144Z,43.75
2017-03-18T04:56:55.490Z,43.55
2017-03-18T04:57:55.202Z,43.94
2017-03-18T04:58:55.543Z,43.17
2017-03-18T04:59:55.570Z,43.85
2017-03-18T05:00:55.284Z,43.75
2017-03-18T05:01:55.620Z,43.85
2017-03-18T05:02:55.334Z,43.46
2017-03-18T05:03:55.366Z,43.73
2017-03-18T05:04:55.407Z,43.27
2017-03-18T05:05:55.410Z,43.27
2017-03-18T05:06:55.761Z,43.75
2017-03-18T05:07:55.781Z,43.46
2017-03-18T05:08:55.814Z,43.65
2017-03-18T05:09:55.834Z,43.73
2017-03-18T05:10:55.864Z,43.46
2017-03-18T05:11:55.892Z,43.46
2017-03-18T05:12:55.605Z,43.54
2017-03-18T05:13:55.630Z,43.73
2017-03-18T05:14:55.971Z,43.73
2017-03-18T05:15:55.999Z,43.54
2017-03-18T05:16:56.023Z,43.55
2017-03-18T05:17:55.745Z,43.54
2017-03-18T05:18:55.762Z,43.82
2017-03-18T05:19:55.798Z,43.65
2017-03-18T05:20:55.819Z,43.73
2017-03-18T05:21:55.844Z,43.55
2017-03-18T05:22:56.124Z,43.63
2017-03-18T05:23:55.897Z,43.82
2017-03-18T05:24:55.926Z,43.54
2017-03-18T05:25:56.271Z,43.37
2017-03-18T05:26:55.980Z,43.54
2017-03-18T05:27:56.572Z,43.75
2017-03-18T05:28:56.033Z,43.65
2017-03-18T05:29:56.069Z,43.27
2017-03-18T05:30:56.087Z,43.85
2017-03-18T05:31:56.427Z,43.75
2017-03-18T05:32:56.704Z,43.46
2017-03-18T05:33:56.477Z,43.65
2017-03-18T05:34:56.189Z,43.65
2017-03-18T05:35:56.222Z,43.75
2017-03-18T05:36:56.247Z,43.65
2017-03-18T05:37:56.839Z,43.75
2017-03-18T05:38:56.301Z,43.55
2017-03-18T05:39:56.641Z,43.65
2017-03-18T05:40:56.665Z,43.46
2017-03-18T05:41:56.383Z,43.55
2017-03-18T05:42:56.663Z,43.85
2017-03-18T05:43:56.436Z,43.37
2017-03-18T05:44:56.766Z,43.55
2017-03-18T05:45:56.505Z,43.27
2017-03-18T05:46:56.825Z,43.46
2017-03-18T05:47:56.786Z,43.27
2017-03-18T05:48:56.568Z,43.85
2017-03-18T05:49:56.596Z,43.85
2017-03-18T05:50:56.938Z,43.85
2017-03-18T05:51:56.650Z,43.37
2017-03-18T05:52:57.242Z,43.27
2017-03-18T05:53:57.014Z,43.46
2017-03-18T05:54:56.733Z,43.17
2017-03-18T05:55:57.073Z,43.07
2017-03-18T05:56:57.092Z,43.27
2017-03-18T05:57:57.370Z,43.27
2017-03-18T05:58:56.839Z,43.37
2017-03-18T05:59:56.864Z,43.37
2017-03-18T06:00:57.205Z,43.29
2017-03-18T06:01:57.221Z,43.38
2017-03-18T06:02:56.952Z,43.29
2017-03-18T06:03:56.971Z,43.1
2017-03-18T06:04:57.313Z,42.61
2017-03-18T06:05:57.024Z,43
2017-03-18T06:06:57.369Z,43.19
2017-03-18T06:07:57.395Z,43
2017-03-18T06:08:57.415Z,43
2017-03-18T06:09:57.444Z,42.61
2017-03-18T06:10:57.463Z,42.71
2017-03-18T06:11:57.492Z,42.61
2017-03-18T06:12:57.526Z,42.9
2017-03-18T06:13:57.241Z,42.8
2017-03-18T06:14:57.267Z,42.61
2017-03-18T06:15:57.608Z,42.61
2017-03-18T06:16:57.320Z,42.61
2017-03-18T06:17:57.666Z,42.71
2017-03-18T06:18:57.374Z,43.48
2017-03-18T06:19:57.719Z,42.61
2017-03-18T06:20:57.740Z,42.9
2017-03-18T06:21:57.456Z,42.9
2017-03-18T06:22:57.794Z,43
2017-03-18T06:23:57.820Z,42.9
2017-03-18T06:24:57.850Z,43
2017-03-18T06:25:57.875Z,43.02
2017-03-18T06:26:57.904Z,43.21
2017-03-18T06:27:57.959Z,43.21
2017-03-18T06:28:57.650Z,43.21
2017-03-18T06:29:57.982Z,43.21
2017-03-18T06:30:58.011Z,43.21
2017-03-18T06:31:57.728Z,43.12
2017-03-18T06:32:58.068Z,43.41
2017-03-18T06:33:57.781Z,42.54
2017-03-18T06:34:57.809Z,43.12
2017-03-18T06:35:58.147Z,43.12
2017-03-18T06:36:58.167Z,42.54
2017-03-18T06:37:58.205Z,42.83
2017-03-18T06:38:58.229Z,42.63
2017-03-18T06:39:57.936Z,42.54
2017-03-18T06:40:58.282Z,42.63
2017-03-18T06:41:58.307Z,42.54
2017-03-18T06:42:58.029Z,42.44
2017-03-18T06:43:58.363Z,42.44
2017-03-18T06:44:58.078Z,42.54
2017-03-18T06:45:58.418Z,42.35
2017-03-18T06:46:58.130Z,42.25
2017-03-18T06:47:58.477Z,42.54
2017-03-18T06:48:58.535Z,42.35
2017-03-18T06:49:58.526Z,42.35
2017-03-18T06:50:58.238Z,42.44
2017-03-18T06:51:58.577Z,42.54
2017-03-18T06:52:58.611Z,42.44
2017-03-18T06:53:58.633Z,42.44
2017-03-18T06:54:58.358Z,42.73
2017-03-18T06:55:58.687Z,42.35
2017-03-18T06:56:58.398Z,42.54
2017-03-18T06:57:58.744Z,42.25
2017-03-18T06:58:58.708Z,42.44
2017-03-18T06:59:58.797Z,42.35
2017-03-18T07:00:58.822Z,42.44
2017-03-18T07:01:58.535Z,42.05
2017-03-18T07:02:58.884Z,42.05
2017-03-18T07:03:58.842Z,42.25
2017-03-18T07:04:58.938Z,42.25
2017-03-18T07:05:58.644Z,42.15
2017-03-18T07:06:58.990Z,42.25
2017-03-18T07:07:58.706Z,42.25
2017-03-18T07:08:58.980Z,42.35
2017-03-18T07:09:58.756Z,42.44
2017-03-18T07:10:59.097Z,42.44
2017-03-18T07:11:58.811Z,42.25
2017-03-18T07:12:58.836Z,42.25
2017-03-18T07:13:59.427Z,42.25
2017-03-18T07:14:58.896Z,42.35
2017-03-18T07:15:58.918Z,41.77
2017-03-18T07:16:59.257Z,41.77
2017-03-18T07:17:58.975Z,41.98
2017-03-18T07:18:59.563Z,41.77
2017-03-18T07:19:59.341Z,42.15
2017-03-18T07:20:59.365Z,42.56
2017-03-18T07:21:59.081Z,42.36
2017-03-18T07:22:59.419Z,42.54
2017-03-18T07:23:59.386Z,42.36
2017-03-18T07:24:59.161Z,41.78
2017-03-18T07:25:59.189Z,41.98
2017-03-18T07:26:59.530Z,42.25
2017-03-18T07:27:59.563Z,42.08
2017-03-18T07:28:59.833Z,41.77
2017-03-18T07:29:59.617Z,42.08
2017-03-18T07:30:59.641Z,42.08
2017-03-18T07:31:59.670Z,41.88
2017-03-18T07:32:59.694Z,42.05
2017-03-18T07:33:59.975Z,42.25
2017-03-18T07:34:59.748Z,41.96
2017-03-18T07:35:59.772Z,41.96
2017-03-18T07:36:59.806Z,42.08
2017-03-18T07:37:59.826Z,41.96
2017-03-18T07:38:59.795Z,42.18
2017-03-18T07:39:59.892Z,42.18
2017-03-18T07:40:59.908Z,42.25
2017-03-18T07:41:59.940Z,42.25
2017-03-18T07:42:59.968Z,42.15
2017-03-18T07:43:59.930Z,42.15
2017-03-18T07:45:00.024Z,42.27
2017-03-18T07:46:00.048Z,42.05
2017-03-18T07:47:00.073Z,42.05
2017-03-18T07:48:00.102Z,42.05
2017-03-18T07:49:00.390Z,42.05
2017-03-18T07:49:59.843Z,42.25
2017-03-18T07:51:00.184Z,42.05
2017-03-18T07:52:00.208Z,42.05
2017-03-18T07:53:00.240Z,42.25
2017-03-18T07:54:00.520Z,42.15
2017-03-18T07:55:00.289Z,42.15
2017-03-18T07:56:00.323Z,42.05
2017-03-18T07:57:00.348Z,42.15
2017-03-18T07:58:00.052Z,41.96
2017-03-18T07:59:00.341Z,42.15
2017-03-18T08:00:00.427Z,42.15
2017-03-18T08:01:00.451Z,42.15
2017-03-18T08:02:00.484Z,42.15
2017-03-18T08:03:00.196Z,42.25
2017-03-18T08:04:00.478Z,41.67
2017-03-18T08:05:00.570Z,42.05
2017-03-18T08:06:00.279Z,42.05
2017-03-18T08:07:00.617Z,42.15
2017-03-18T08:08:00.648Z,41.77
2017-03-18T08:09:00.607Z,42.25
2017-03-18T08:10:00.698Z,42.05
2017-03-18T08:11:00.416Z,42.25
2017-03-18T08:12:00.756Z,42.15
2017-03-18T08:13:00.785Z,42.15
2017-03-18T08:14:00.744Z,42.25
2017-03-18T08:15:00.841Z,41.86
2017-03-18T08:16:00.862Z,41.67
2017-03-18T08:17:00.579Z,41.77
2017-03-18T08:18:00.919Z,42.15
2017-03-18T08:19:01.196Z,42.05
2017-03-18T08:20:00.666Z,42.15
2017-03-18T08:21:01.002Z,41.96
2017-03-18T08:22:00.715Z,42.25
2017-03-18T08:23:01.060Z,42.15
2017-03-18T08:24:01.332Z,42.15
2017-03-18T08:25:01.111Z,41.67
2017-03-18T08:26:01.138Z,42.15
2017-03-18T08:27:01.163Z,41.86
2017-03-18T08:28:01.200Z,42.44
2017-03-18T08:29:01.467Z,41.86
2017-03-18T08:30:01.247Z,41.96
2017-03-18T08:31:01.279Z,41.86
2017-03-18T08:32:01.297Z,41.77
2017-03-18T08:33:01.328Z,41.86
2017-03-18T08:34:01.040Z,41.77
2017-03-18T08:35:01.384Z,41.77
2017-03-18T08:36:01.410Z,41.96
2017-03-18T08:37:01.435Z,42.05
2017-03-18T08:38:01.462Z,42.15
2017-03-18T08:39:01.183Z,41.94
2017-03-18T08:40:01.517Z,42.03
2017-03-18T08:41:01.229Z,41.77
2017-03-18T08:42:01.262Z,42.15
2017-03-18T08:43:01.601Z,41.86
2017-03-18T08:44:01.626Z,41.86
2017-03-18T08:45:01.344Z,42.54
2017-03-18T08:46:01.685Z,42.05
2017-03-18T08:47:01.717Z,42.23
2017-03-18T08:48:01.735Z,42.25
2017-03-18T08:49:01.457Z,42.13
2017-03-18T08:50:01.788Z,42.23
2017-03-18T08:51:01.818Z,42.42
2017-03-18T08:52:01.529Z,42.32
2017-03-18T08:53:01.876Z,42.52
2017-03-18T08:54:01.899Z,42.32
2017-03-18T08:55:01.932Z,42.52
2017-03-18T08:56:01.952Z,42.32
2017-03-18T08:57:01.668Z,42.13
2017-03-18T08:58:01.698Z,42.52
2017-03-18T08:59:02.035Z,42.42
2017-03-18T09:00:01.767Z,42.42
2017-03-18T09:01:02.089Z,42.42
2017-03-18T09:02:01.806Z,42.23
2017-03-18T09:03:02.146Z,42.42
2017-03-18T09:04:02.160Z,42.32
2017-03-18T09:05:01.887Z,42.42
2017-03-18T09:06:02.220Z,42.32
2017-03-18T09:07:02.257Z,42.23
2017-03-18T09:08:02.279Z,42.13
2017-03-18T09:09:02.306Z,42.23
2017-03-18T09:10:02.325Z,42.23
2017-03-18T09:11:02.360Z,42.13
2017-03-18T09:12:02.389Z,42.32
2017-03-18T09:13:02.416Z,42.03
2017-03-18T09:14:02.441Z,42.13
2017-03-18T09:15:02.467Z,42.13
2017-03-18T09:16:02.501Z,42.52
2017-03-18T09:17:02.208Z,42.42
2017-03-18T09:18:02.551Z,42.23
2017-03-18T09:19:02.579Z,42.32
2017-03-18T09:20:02.603Z,42.23
2017-03-18T09:21:02.631Z,42.52
2017-03-18T09:22:02.352Z,42.42
2017-03-18T09:23:02.373Z,42.23
2017-03-18T09:24:02.714Z,42.32
2017-03-18T09:25:02.766Z,42.42
2017-03-18T09:26:02.455Z,42.42
2017-03-18T09:27:02.484Z,42.61
2017-03-18T09:28:02.509Z,42.71
2017-03-18T09:29:02.847Z,42.42
2017-03-18T09:30:02.873Z,42.71
2017-03-18T09:31:02.894Z,42.71
2017-03-18T09:32:02.925Z,42.71
2017-03-18T09:33:02.957Z,42.23
2017-03-18T09:34:02.986Z,42.32
2017-03-18T09:35:03.010Z,42.71
2017-03-18T09:36:03.042Z,42.61
2017-03-18T09:37:03.060Z,42.61
2017-03-18T09:38:03.089Z,42.61
2017-03-18T09:39:03.121Z,42.32
2017-03-18T09:40:03.150Z,42.52
2017-03-18T09:41:03.167Z,42.71
2017-03-18T09:42:03.204Z,42.52
2017-03-18T09:43:03.236Z,42.61
2017-03-18T09:44:03.257Z,42.61
2017-03-18T09:45:03.529Z,42.23
2017-03-18T09:46:03.303Z,42.61
2017-03-18T09:47:03.334Z,42.71
2017-03-18T09:48:03.364Z,42.61
2017-03-18T09:49:03.076Z,42.61
2017-03-18T09:50:03.669Z,42.52
2017-03-18T09:51:03.442Z,42.61
2017-03-18T09:52:03.471Z,42.71
2017-03-18T09:53:03.496Z,42.52
2017-03-18T09:54:03.520Z,42.61
2017-03-18T09:55:03.803Z,42.61
2017-03-18T09:56:03.578Z,42.52
2017-03-18T09:57:03.611Z,42.9
2017-03-18T09:58:03.652Z,42.52
2017-03-18T09:59:03.349Z,42.61
2017-03-18T10:00:03.636Z,42.71
2017-03-18T10:01:03.717Z,42.61
2017-03-18T10:02:03.432Z,42.71
2017-03-18T10:03:03.460Z,42.32
2017-03-18T10:04:03.488Z,42.61
2017-03-18T10:05:04.073Z,42.52
2017-03-18T10:06:03.550Z,42.8
2017-03-18T10:07:03.563Z,42.61
2017-03-18T10:08:03.600Z,42.61
2017-03-18T10:09:03.937Z,42.61
2017-03-18T10:10:04.212Z,42.32
2017-03-18T10:11:03.986Z,42.71
2017-03-18T10:12:04.017Z,42.42
2017-03-18T10:13:04.039Z,42.61
2017-03-18T10:14:04.072Z,42.61
2017-03-18T10:15:04.352Z,42.71
2017-03-18T10:16:04.117Z,42.52
2017-03-18T10:17:04.147Z,42.61
2017-03-18T10:18:04.175Z,42.8
2017-03-18T10:19:04.205Z,42.71
2017-03-18T10:20:04.476Z,42.71
2017-03-18T10:21:03.945Z,42.71
2017-03-18T10:22:03.969Z,43.17
2017-03-18T10:23:04.318Z,42.61
2017-03-18T10:24:04.339Z,43.27
2017-03-18T10:25:04.052Z,42.52
2017-03-18T10:26:04.082Z,42.61
2017-03-18T10:27:04.412Z,42.71
2017-03-18T10:28:04.131Z,42.3
2017-03-18T10:29:04.474Z,42.61
2017-03-18T10:30:04.500Z,43.29
2017-03-18T10:31:04.523Z,43.1
2017-03-18T10:32:04.554Z,42.69
2017-03-18T10:33:04.582Z,43.29
2017-03-18T10:34:04.604Z,42.61
2017-03-18T10:35:04.327Z,43.29
2017-03-18T10:36:04.660Z,42.59
2017-03-18T10:37:04.685Z,43.27
2017-03-18T10:38:04.714Z,43.29
2017-03-18T10:39:04.743Z,43.17
2017-03-18T10:40:04.767Z,43.19
2017-03-18T10:41:04.797Z,42.61
2017-03-18T10:42:04.826Z,42.8
2017-03-18T10:43:04.851Z,42.59
2017-03-18T10:44:04.879Z,43.19
2017-03-18T10:45:04.904Z,42.52
2017-03-18T10:46:04.624Z,42.52
2017-03-18T10:47:04.967Z,42.61
2017-03-18T10:48:04.990Z,43.19
2017-03-18T10:49:05.016Z,43.29
2017-03-18T10:50:05.035Z,43.27
2017-03-18T10:51:05.068Z,42.59
2017-03-18T10:52:05.098Z,43.37
2017-03-18T10:53:04.804Z,43.19
2017-03-18T10:54:04.841Z,43.17
2017-03-18T10:55:05.183Z,43.17
2017-03-18T10:56:05.201Z,43.17
2017-03-18T10:57:05.237Z,43.17
2017-03-18T10:58:05.253Z,42.79
2017-03-18T10:59:05.286Z,43.07
2017-03-18T11:00:05.314Z,42.97
2017-03-18T11:01:05.342Z,43.17
2017-03-18T11:02:05.376Z,43.17
2017-03-18T11:03:05.388Z,43.17
2017-03-18T11:04:05.421Z,43.07
2017-03-18T11:05:05.447Z,43.17
2017-03-18T11:06:05.162Z,43.27
2017-03-18T11:07:05.497Z,42.97
2017-03-18T11:08:05.524Z,43.17
2017-03-18T11:09:05.561Z,43.19
2017-03-18T11:10:05.273Z,43.27
2017-03-18T11:11:05.864Z,43.27
2017-03-18T11:12:05.324Z,43.27
2017-03-18T11:13:05.662Z,43.27
2017-03-18T11:14:05.691Z,43.17
2017-03-18T11:15:05.402Z,43.17
2017-03-18T11:16:05.994Z,43.17
2017-03-18T11:17:05.468Z,43.07
2017-03-18T11:18:05.801Z,43.17
2017-03-18T11:19:05.825Z,43.17
2017-03-18T11:20:05.543Z,43.17
2017-03-18T11:21:05.967Z,43.17
2017-03-18T11:22:05.903Z,43.17
2017-03-18T11:23:05.615Z,43.17
2017-03-18T11:24:05.957Z,42.97
2017-03-18T11:25:05.986Z,42.9
2017-03-18T11:26:06.307Z,42.97
2017-03-18T11:27:05.724Z,43.07
2017-03-18T11:28:06.069Z,42.97
2017-03-18T11:29:06.120Z,42.88
2017-03-18T11:30:05.810Z,42.69
2017-03-18T11:31:06.095Z,42.88
2017-03-18T11:32:06.174Z,43.07
2017-03-18T11:33:05.892Z,43.07
2017-03-18T11:34:06.225Z,42.97
2017-03-18T11:35:06.251Z,43.07
2017-03-18T11:36:06.540Z,42.97
2017-03-18T11:37:06.308Z,42.88
2017-03-18T11:38:06.395Z,42.97
2017-03-18T11:39:06.407Z,43.07
2017-03-18T11:40:06.079Z,43.07
2017-03-18T11:41:06.665Z,42.97
2017-03-18T11:42:06.459Z,43.17
2017-03-18T11:43:06.476Z,43.07
2017-03-18T11:44:06.501Z,42.69
2017-03-18T11:45:06.533Z,42.69
2017-03-18T11:46:06.802Z,43.55
2017-03-18T11:47:06.579Z,43.46
2017-03-18T11:48:06.609Z,42.97
2017-03-18T11:49:06.637Z,42.97
2017-03-18T11:50:06.348Z,42.88
2017-03-18T11:51:06.941Z,42.97
2017-03-18T11:52:06.715Z,42.79
2017-03-18T11:53:06.744Z,43.07
2017-03-18T11:54:06.776Z,43.07
2017-03-18T11:55:07.080Z,43.07
2017-03-18T11:56:07.077Z,42.69
2017-03-18T11:57:06.867Z,42.69
2017-03-18T11:58:06.883Z,42.69
2017-03-18T11:59:06.592Z,43.55
2017-03-18T12:00:06.924Z,42.69
2017-03-18T12:01:07.212Z,43.46
2017-03-18T12:02:06.987Z,43.55
2017-03-18T12:03:07.025Z,42.97
2017-03-18T12:04:06.724Z,42.88
2017-03-18T12:05:06.757Z,42.69
2017-03-18T12:06:07.088Z,43.55
2017-03-18T12:07:07.138Z,42.88
2017-03-18T12:08:07.152Z,43.17
2017-03-18T12:09:07.175Z,43.46
2017-03-18T12:10:06.884Z,42.97
2017-03-18T12:11:06.917Z,42.88
2017-03-18T12:12:07.254Z,43.07
2017-03-18T12:13:06.989Z,42.97
2017-03-18T12:14:07.312Z,43.07
2017-03-18T12:15:07.023Z,42.97
2017-03-18T12:16:07.059Z,42.79
2017-03-18T12:17:07.413Z,42.97
2017-03-18T12:18:07.423Z,42.97
2017-03-18T12:19:07.136Z,42.88
2017-03-18T12:20:07.156Z,43.07
2017-03-18T12:21:07.501Z,42.97
2017-03-18T12:22:07.534Z,42.88
2017-03-18T12:23:07.556Z,43.17
2017-03-18T12:24:07.579Z,43.07
2017-03-18T12:25:07.608Z,43.07
2017-03-18T12:26:07.629Z,43.1
2017-03-18T12:27:07.661Z,43.19
2017-03-18T12:28:07.375Z,42.79
2017-03-18T12:29:07.716Z,43.1
2017-03-18T12:30:07.740Z,43.07
2017-03-18T12:31:07.453Z,43
2017-03-18T12:32:07.486Z,43
2017-03-18T12:33:07.822Z,43.1
2017-03-18T12:34:07.854Z,42.61
2017-03-18T12:35:07.887Z,42.61
2017-03-18T12:36:07.593Z,42.52
2017-03-18T12:37:07.622Z,42.71
2017-03-18T12:38:07.958Z,42.8
2017-03-18T12:39:07.673Z,42.52
2017-03-18T12:40:08.011Z,43.58
2017-03-18T12:41:07.725Z,43.48
2017-03-18T12:42:08.069Z,42.9
2017-03-18T12:43:08.093Z,43.1
2017-03-18T12:44:08.136Z,42.71
2017-03-18T12:45:08.148Z,43.1
2017-03-18T12:46:08.176Z,43.02
2017-03-18T12:47:07.890Z,42.71
2017-03-18T12:48:08.231Z,43.1
2017-03-18T12:49:07.982Z,42.8
2017-03-18T12:50:08.283Z,43.12
2017-03-18T12:51:08.307Z,42.54
2017-03-18T12:52:08.342Z,42.73
2017-03-18T12:53:08.058Z,43.02
2017-03-18T12:54:08.393Z,42.73
2017-03-18T12:55:08.107Z,42.63